Time;durP1;ratioP1;P1;durP2;ratioP2;P2;SDS_P1;SDS_P2;PMS_P1;PMS_P2;Temp;Humidity;BMP_temperature;BMP_pressure;BME280_temperature;BME280_humidity;BME280_pressure;Samples;Min_cycle;Max_cycle;Signal;HPM_P1;HPM_P2
2021/06/12 00:02:12;;;;;;;4.25;3.90;;;22.10;96.70;;;;;;5095695;27;20043;-73
2021/06/12 00:04:42;;;;;;;4.75;3.95;;;22.00;96.70;;;;;;5102539;27;20066;-73
2021/06/12 00:07:12;;;;;;;3.92;3.22;;;21.90;96.70;;;;;;5097998;27;20203;-73
2021/06/12 00:09:43;;;;;;;3.80;3.33;;;22.00;96.70;;;;;;5100476;27;20545;-73
2021/06/12 00:12:13;;;;;;;6.20;3.50;;;22.00;96.70;;;;;;5099082;27;20692;-73
2021/06/12 00:14:43;;;;;;;5.97;3.70;;;22.00;96.70;;;;;;5101749;27;20141;-73
2021/06/12 00:17:13;;;;;;;3.45;3.00;;;22.00;96.70;;;;;;5096840;28;20557;-73
2021/06/12 00:19:43;;;;;;;4.68;3.35;;;21.90;96.70;;;;;;5096844;27;20075;-73
2021/06/12 00:22:13;;;;;;;4.35;3.08;;;21.80;96.70;;;;;;5115443;27;20451;-73
2021/06/12 00:24:44;;;;;;;3.58;3.00;;;21.70;96.70;;;;;;5098957;27;20146;-73
2021/06/12 00:27:14;;;;;;;3.53;3.20;;;21.70;96.70;;;;;;5098152;27;20039;-73
2021/06/12 00:29:44;;;;;;;6.57;3.40;;;21.80;96.70;;;;;;5095984;27;20036;-73
2021/06/12 00:32:15;;;;;;;3.70;3.30;;;21.80;96.70;;;;;;5081800;27;20108;-73
2021/06/12 00:34:45;;;;;;;3.30;3.00;;;21.80;96.70;;;;;;5095503;27;20047;-73
2021/06/12 00:37:15;;;;;;;3.72;3.17;;;21.70;96.70;;;;;;5099547;28;20049;-73
2021/06/12 00:39:46;;;;;;;3.50;3.20;;;21.60;96.70;;;;;;5100473;27;20591;-73
2021/06/12 00:42:16;;;;;;;3.75;3.13;;;21.60;96.70;;;;;;5099031;28;20034;-72
2021/06/12 00:44:46;;;;;;;3.72;3.05;;;21.60;96.70;;;;;;5099489;27;20048;-73
2021/06/12 00:47:16;;;;;;;4.00;2.90;;;21.60;96.70;;;;;;5098159;28;20078;-73
2021/06/12 00:49:46;;;;;;;3.80;3.13;;;21.60;96.70;;;;;;5099683;28;20042;-73
2021/06/12 00:52:16;;;;;;;6.82;3.47;;;21.60;96.70;;;;;;5100926;27;20089;-73
2021/06/12 00:54:47;;;;;;;5.60;3.97;;;21.80;96.70;;;;;;5099320;27;20043;-73
2021/06/12 00:57:18;;;;;;;7.10;3.55;;;21.60;96.70;;;;;;5100492;28;20059;-73
2021/06/12 00:59:48;;;;;;;3.28;2.95;;;21.40;96.70;;;;;;5099322;27;20755;-73
2021/06/12 01:02:19;;;;;;;3.95;3.60;;;21.30;96.70;;;;;;5099768;27;20105;-74
2021/06/12 01:04:49;;;;;;;3.42;3.13;;;21.30;96.70;;;;;;5119719;27;20044;-73
2021/06/12 01:07:23;;;;;;;6.55;3.33;;;21.40;96.70;;;;;;5103092;27;20031;-74
2021/06/12 01:10:04;;;;;;;4.88;3.63;;;21.30;96.70;;;;;;5098418;28;20040;-74
2021/06/12 01:12:49;;;;;;;4.80;3.78;;;21.40;96.70;;;;;;5095307;28;20046;-73
2021/06/12 01:15:19;;;;;;;5.32;3.58;;;21.30;96.70;;;;;;5084836;28;20039;-73
2021/06/12 01:17:56;;;;;;;4.80;3.63;;;21.30;96.70;;;;;;5098131;28;20039;-73
2021/06/12 01:20:59;;;;;;;5.97;3.33;;;21.20;96.70;;;;;;5097443;28;20551;-73
2021/06/12 01:24:10;;;;;;;4.38;3.70;;;21.30;96.70;;;;;;5094959;28;20060;-73
2021/06/12 01:27:16;;;;;;;3.80;3.33;;;21.20;96.70;;;;;;5101837;28;20581;-72
2021/06/12 01:30:13;;;;;;;4.50;3.67;;;21.10;96.70;;;;;;5096350;28;20073;-73
2021/06/12 01:33:13;;;;;;;4.03;3.08;;;21.10;96.70;;;;;;5061306;28;20063;-73
2021/06/12 01:35:44;;;;;;;4.15;3.75;;;21.10;96.70;;;;;;5099667;28;20039;-73
2021/06/12 01:38:17;;;;;;;4.28;3.88;;;21.20;96.70;;;;;;5101211;27;20121;-73
2021/06/12 01:40:48;;;;;;;4.63;4.15;;;21.20;96.70;;;;;;5099526;28;20457;-72
2021/06/12 01:43:19;;;;;;;4.78;3.80;;;21.20;96.70;;;;;;5096411;28;20501;-72
2021/06/12 01:45:52;;;;;;;5.00;3.70;;;21.00;96.70;;;;;;5097930;28;20032;-73
2021/06/12 01:48:58;;;;;;;5.47;3.83;;;21.00;96.70;;;;;;5095551;28;20040;-73
2021/06/12 01:51:27;;;;;;;6.38;3.95;;;21.10;96.70;;;;;;5102150;28;20132;-73
2021/06/12 01:53:58;;;;;;;5.03;3.95;;;21.20;96.70;;;;;;5096814;28;20540;-73
2021/06/12 01:56:27;;;;;;;4.30;3.97;;;21.10;96.70;;;;;;5097378;27;20047;-73
2021/06/12 01:58:56;;;;;;;5.10;4.03;;;20.90;96.70;;;;;;5115885;27;20199;-73
2021/06/12 02:01:28;;;;;;;4.63;4.13;;;20.70;96.70;;;;;;5099318;27;20054;-73
2021/06/12 02:04:01;;;;;;;5.75;3.78;;;20.60;96.70;;;;;;5127845;27;20067;-73
2021/06/12 02:06:42;;;;;;;3.80;3.50;;;20.60;96.70;;;;;;5102609;28;20112;-73
2021/06/12 02:09:24;;;;;;;4.32;3.58;;;20.70;96.70;;;;;;5106781;27;20438;-73
2021/06/12 02:12:01;;;;;;;5.43;3.30;;;20.80;96.70;;;;;;5102033;27;20493;-74
2021/06/12 02:14:32;;;;;;;5.03;3.30;;;20.80;96.70;;;;;;5101340;27;20542;-74
2021/06/12 02:17:04;;;;;;;4.13;3.58;;;20.80;96.70;;;;;;5096144;27;20044;-74
2021/06/12 02:19:37;;;;;;;5.15;3.55;;;20.70;96.70;;;;;;5102057;27;20127;-74
2021/06/12 02:22:08;;;;;;;4.78;3.53;;;20.60;96.70;;;;;;5100946;27;20122;-74
2021/06/12 02:24:38;;;;;;;4.45;3.40;;;20.60;96.70;;;;;;5123626;27;20474;-74
2021/06/12 02:27:10;;;;;;;4.22;3.53;;;20.50;96.70;;;;;;5103970;27;20046;-74
2021/06/12 02:29:43;;;;;;;4.55;3.30;;;20.40;96.70;;;;;;5103574;27;20042;-74
2021/06/12 02:32:17;;;;;;;3.55;3.03;;;20.40;96.70;;;;;;5101112;28;20036;-74
2021/06/12 02:34:48;;;;;;;4.38;3.40;;;20.40;96.70;;;;;;5101424;27;20039;-74
2021/06/12 02:37:17;;;;;;;5.15;3.47;;;20.40;96.70;;;;;;5100678;28;20040;-74
2021/06/12 02:39:46;;;;;;;4.63;3.33;;;20.40;96.70;;;;;;5101756;27;20044;-74
2021/06/12 02:42:15;;;;;;;4.65;3.45;;;20.40;96.70;;;;;;5106252;27;20384;-74
2021/06/12 02:44:44;;;;;;;5.03;3.70;;;20.30;96.70;;;;;;5105261;27;20505;-74
2021/06/12 02:47:15;;;;;;;6.57;3.60;;;20.30;96.70;;;;;;5098126;27;20081;-74
2021/06/12 02:50:00;;;;;;;4.70;3.92;;;20.30;96.70;;;;;;5099445;27;20132;-74
2021/06/12 02:52:31;;;;;;;4.65;3.20;;;20.20;96.70;;;;;;5105128;27;20269;-74
2021/06/12 02:55:05;;;;;;;4.45;3.85;;;20.30;96.70;;;;;;5101733;27;20044;-74
2021/06/12 02:57:36;;;;;;;4.55;4.03;;;20.30;96.70;;;;;;5101462;27;20044;-74
2021/06/12 03:00:08;;;;;;;4.20;3.80;;;20.20;96.70;;;;;;5095186;27;20040;-75
2021/06/12 03:02:42;;;;;;;4.75;3.97;;;20.00;96.70;;;;;;5101223;27;20377;-74
2021/06/12 03:05:15;;;;;;;5.05;3.80;;;20.10;96.70;;;;;;5082564;28;20470;-74
2021/06/12 03:07:47;;;;;;;5.60;3.72;;;20.20;96.70;;;;;;5100546;28;20069;-74
2021/06/12 03:10:17;;;;;;;5.38;3.83;;;20.20;96.70;;;;;;5101970;27;20209;-74
2021/06/12 03:12:47;;;;;;;5.47;4.20;;;20.10;96.70;;;;;;5100746;27;20104;-74
2021/06/12 03:15:18;;;;;;;4.80;3.38;;;20.20;96.70;;;;;;5100469;27;20467;-74
2021/06/12 03:17:52;;;;;;;3.80;3.50;;;20.20;96.70;;;;;;5108676;27;20129;-74
2021/06/12 03:20:22;;;;;;;5.40;3.95;;;20.20;96.70;;;;;;5102935;27;20047;-73
2021/06/12 03:22:52;;;;;;;4.43;3.40;;;20.30;96.70;;;;;;5095944;27;20349;-74
2021/06/12 03:25:22;;;;;;;5.40;3.60;;;20.40;96.70;;;;;;5119217;27;20466;-74
2021/06/12 03:27:51;;;;;;;6.18;3.70;;;20.40;96.70;;;;;;5097987;27;20039;-74
2021/06/12 03:30:21;;;;;;;4.55;3.80;;;20.30;96.70;;;;;;5106494;27;20131;-74
2021/06/12 03:32:53;;;;;;;3.75;3.45;;;20.20;96.70;;;;;;5100893;27;20122;-74
2021/06/12 03:35:23;;;;;;;3.90;3.60;;;20.20;96.70;;;;;;5102559;27;20505;-74
2021/06/12 03:37:53;;;;;;;3.80;3.40;;;20.20;96.70;;;;;;5098123;27;20564;-74
2021/06/12 03:40:24;;;;;;;3.90;3.42;;;20.10;96.70;;;;;;5095624;28;20051;-74
2021/06/12 03:42:56;;;;;;;4.38;3.92;;;20.00;96.70;;;;;;5100880;27;20088;-74
2021/06/12 03:45:27;;;;;;;4.50;4.10;;;20.10;96.70;;;;;;5102579;27;20046;-74
2021/06/12 03:48:01;;;;;;;7.10;3.90;;;20.10;96.70;;;;;;5098666;27;20036;-75
2021/06/12 03:50:31;;;;;;;4.30;3.90;;;20.00;96.70;;;;;;5100630;27;20122;-74
2021/06/12 03:53:03;;;;;;;4.15;3.75;;;19.80;96.70;;;;;;5098678;28;20116;-74
2021/06/12 03:55:33;;;;;;;4.43;3.65;;;19.90;96.70;;;;;;5093174;28;20203;-74
2021/06/12 03:58:03;;;;;;;4.40;3.70;;;20.00;96.70;;;;;;5100149;27;20078;-74
2021/06/12 04:00:34;;;;;;;5.25;4.00;;;20.10;96.70;;;;;;5096954;27;20081;-74
2021/06/12 04:03:05;;;;;;;3.75;3.45;;;20.10;96.70;;;;;;5099852;27;20164;-74
2021/06/12 04:05:35;;;;;;;5.32;4.10;;;20.00;96.70;;;;;;5101265;27;20113;-74
2021/06/12 04:08:05;;;;;;;5.28;3.67;;;20.00;96.70;;;;;;5097919;27;20043;-74
2021/06/12 04:10:35;;;;;;;4.30;3.90;;;20.10;96.70;;;;;;5100880;27;20044;-75
2021/06/12 04:13:04;;;;;;;4.97;3.78;;;20.00;96.70;;;;;;5098504;27;20484;-74
2021/06/12 04:15:34;;;;;;;4.47;3.95;;;19.90;96.70;;;;;;5099037;28;20036;-75
2021/06/12 04:18:08;;;;;;;6.97;3.88;;;19.90;96.70;;;;;;5080143;28;20528;-74
2021/06/12 04:20:39;;;;;;;4.22;3.83;;;19.90;96.70;;;;;;5097802;27;20035;-75
2021/06/12 04:23:09;;;;;;;4.45;4.03;;;19.90;96.70;;;;;;5097142;27;20040;-75
2021/06/12 04:25:39;;;;;;;5.85;3.85;;;19.80;96.70;;;;;;5101272;27;20047;-74
2021/06/12 04:28:08;;;;;;;4.35;3.95;;;19.80;96.70;;;;;;5105221;27;20118;-74
2021/06/12 04:30:38;;;;;;;6.53;4.45;;;19.80;96.70;;;;;;5102172;27;20058;-74
2021/06/12 04:33:10;;;;;;;5.53;4.32;;;19.90;96.70;;;;;;5099060;27;20146;-74
2021/06/12 04:35:39;;;;;;;4.43;3.92;;;20.00;96.70;;;;;;5095654;28;20043;-74
2021/06/12 04:38:07;;;;;;;5.38;4.30;;;20.10;96.70;;;;;;5099880;27;20051;-74
2021/06/12 04:40:37;;;;;;;5.15;3.80;;;20.20;96.70;;;;;;5113382;27;20055;-74
2021/06/12 04:43:06;;;;;;;5.65;3.63;;;20.10;96.70;;;;;;5104905;27;20035;-75
2021/06/12 04:45:35;;;;;;;6.20;4.35;;;20.00;96.70;;;;;;5098354;28;20070;-75
2021/06/12 04:48:05;;;;;;;4.32;3.65;;;20.00;96.70;;;;;;5101639;28;20040;-75
2021/06/12 04:50:36;;;;;;;5.22;3.90;;;20.00;96.70;;;;;;5099488;27;20062;-74
2021/06/12 04:53:06;;;;;;;5.43;4.05;;;20.10;96.70;;;;;;5097268;27;20036;-75
2021/06/12 04:55:35;;;;;;;5.03;3.75;;;20.20;96.70;;;;;;5101088;27;20100;-75
2021/06/12 04:58:03;;;;;;;4.75;3.97;;;20.20;96.70;;;;;;5094688;28;20454;-74
2021/06/12 05:00:32;;;;;;;4.38;3.97;;;20.20;96.70;;;;;;5099761;27;20655;-74
2021/06/12 05:03:00;;;;;;;4.10;3.58;;;20.20;96.70;;;;;;5101530;28;20050;-74
2021/06/12 05:05:28;;;;;;;6.38;4.45;;;20.30;96.70;;;;;;5099213;27;20032;-74
2021/06/12 05:07:58;;;;;;;5.95;4.22;;;20.40;96.70;;;;;;5100665;27;20036;-74
2021/06/12 05:10:27;;;;;;;5.93;4.07;;;20.20;96.70;;;;;;5100728;27;20454;-75
2021/06/12 05:12:55;;;;;;;6.70;4.10;;;20.20;96.70;;;;;;5103917;27;20051;-74
2021/06/12 05:15:28;;;;;;;6.00;4.63;;;20.40;96.70;;;;;;5101223;28;20496;-74
2021/06/12 05:17:59;;;;;;;7.60;4.57;;;20.40;96.70;;;;;;5102877;28;20043;-75
2021/06/12 05:20:27;;;;;;;6.72;5.03;;;20.40;96.70;;;;;;5097996;28;20073;-75
2021/06/12 05:22:57;;;;;;;7.22;4.80;;;20.50;96.70;;;;;;5092251;28;20040;-75
2021/06/12 05:25:26;;;;;;;5.65;5.10;;;20.40;96.70;;;;;;5094797;28;20077;-74
2021/06/12 05:27:54;;;;;;;7.03;5.05;;;20.30;96.70;;;;;;5098974;28;20040;-74
2021/06/12 05:30:23;;;;;;;5.70;5.15;;;20.40;96.70;;;;;;5101039;27;20035;-75
2021/06/12 05:32:52;;;;;;;6.68;5.32;;;20.60;96.70;;;;;;5121382;27;20043;-74
2021/06/12 05:35:22;;;;;;;7.43;5.40;;;20.70;96.70;;;;;;5107377;27;20067;-74
2021/06/12 05:37:50;;;;;;;5.75;5.22;;;20.70;96.70;;;;;;5088595;28;20055;-75
2021/06/12 05:40:20;;;;;;;7.25;5.38;;;20.60;96.70;;;;;;5105394;27;20527;-74
2021/06/12 05:42:48;;;;;;;8.65;6.85;;;20.60;96.70;;;;;;5097896;27;20044;-75
2021/06/12 05:45:17;;;;;;;7.05;6.05;;;20.50;96.70;;;;;;5104576;27;20517;-75
2021/06/12 05:47:45;;;;;;;7.47;6.45;;;20.50;96.70;;;;;;5102701;27;20039;-76
2021/06/12 05:50:13;;;;;;;8.60;7.35;;;20.60;96.70;;;;;;5102773;28;20040;-75
2021/06/12 05:52:42;;;;;;;7.78;6.97;;;20.60;96.70;;;;;;5104573;27;20040;-76
2021/06/12 05:55:15;;;;;;;8.25;7.45;;;20.70;96.70;;;;;;5093181;27;20047;-75
2021/06/12 05:57:44;;;;;;;10.90;7.93;;;20.70;96.70;;;;;;5101910;27;20532;-75
2021/06/12 06:00:14;;;;;;;8.43;7.28;;;20.70;96.70;;;;;;5107355;27;20243;-75
2021/06/12 06:02:44;;;;;;;11.98;8.27;;;20.80;96.70;;;;;;5096444;27;20489;-75
2021/06/12 06:05:13;;;;;;;11.02;7.72;;;20.90;96.70;;;;;;5102588;27;20040;-75
2021/06/12 06:07:41;;;;;;;8.70;7.30;;;21.10;96.70;;;;;;5098323;27;20100;-76
2021/06/12 06:10:10;;;;;;;7.90;6.55;;;21.10;96.70;;;;;;5103132;27;20077;-75
2021/06/12 06:12:39;;;;;;;8.15;6.55;;;21.20;96.70;;;;;;5094501;27;20054;-75
2021/06/12 06:15:10;;;;;;;7.60;6.80;;;21.30;96.70;;;;;;5104081;27;20046;-75
2021/06/12 06:17:39;;;;;;;7.93;7.13;;;21.30;96.70;;;;;;5098856;28;20441;-75
2021/06/12 06:20:09;;;;;;;6.82;6.13;;;21.30;96.70;;;;;;5103562;27;20063;-75
2021/06/12 06:22:37;;;;;;;6.55;5.85;;;21.40;96.70;;;;;;5101600;27;20576;-75
2021/06/12 06:25:07;;;;;;;8.63;6.28;;;21.40;96.70;;;;;;5098085;28;20036;-75
2021/06/12 06:27:36;;;;;;;8.70;7.40;;;21.50;96.70;;;;;;5100222;28;20951;-75
2021/06/12 06:30:06;;;;;;;8.20;6.28;;;21.50;96.70;;;;;;5101752;27;20515;-75
2021/06/12 06:32:36;;;;;;;7.85;6.68;;;21.50;96.70;;;;;;5120569;27;20039;-75
2021/06/12 06:35:06;;;;;;;6.95;6.20;;;21.40;96.70;;;;;;5098899;27;20047;-75
2021/06/12 06:37:34;;;;;;;6.97;6.30;;;21.50;96.70;;;;;;5101172;28;20044;-75
2021/06/12 06:40:04;;;;;;;7.30;6.60;;;21.60;96.70;;;;;;5102369;28;20108;-75
2021/06/12 06:42:32;;;;;;;8.18;7.32;;;21.70;96.70;;;;;;5120450;27;20067;-75
2021/06/12 06:45:00;;;;;;;8.02;6.90;;;21.70;96.70;;;;;;5100894;27;20051;-75
2021/06/12 06:47:30;;;;;;;7.57;6.70;;;21.80;96.70;;;;;;5106003;27;20489;-74
2021/06/12 06:50:03;;;;;;;8.82;6.88;;;21.90;96.70;;;;;;5100374;27;20054;-75
2021/06/12 06:52:31;;;;;;;7.68;6.90;;;22.00;96.70;;;;;;5101370;27;20036;-75
2021/06/12 06:54:59;;;;;;;10.57;8.32;;;22.10;96.70;;;;;;5101932;28;20036;-75
2021/06/12 06:57:28;;;;;;;13.75;10.07;;;22.10;96.70;;;;;;5103163;27;20104;-75
2021/06/12 06:59:56;;;;;;;13.70;10.82;;;22.20;96.70;;;;;;5084329;28;20104;-75
2021/06/12 07:02:25;;;;;;;10.93;8.85;;;22.30;96.70;;;;;;5082065;28;20046;-74
2021/06/12 07:04:53;;;;;;;11.82;8.10;;;22.30;96.70;;;;;;5078521;28;20564;-75
2021/06/12 07:07:23;;;;;;;10.68;8.88;;;22.30;96.70;;;;;;5079519;28;20509;-75
2021/06/12 07:09:53;;;;;;;9.93;7.65;;;22.30;96.70;;;;;;5076226;28;20501;-75
2021/06/12 07:12:21;;;;;;;7.63;6.28;;;22.30;96.70;;;;;;5076284;28;20040;-75
2021/06/12 07:14:50;;;;;;;8.23;7.05;;;22.40;96.70;;;;;;5081587;28;20527;-75
2021/06/12 07:17:18;;;;;;;8.93;6.63;;;22.50;96.70;;;;;;5081674;28;20039;-75
2021/06/12 07:19:47;;;;;;;7.35;6.13;;;22.50;96.70;;;;;;5081422;28;20156;-75
2021/06/12 07:22:15;;;;;;;7.15;5.75;;;22.60;96.70;;;;;;5081588;28;20439;-75
2021/06/12 07:24:45;;;;;;;7.22;6.03;;;22.60;96.70;;;;;;5065682;28;20230;-75
2021/06/12 07:27:14;;;;;;;7.00;5.65;;;22.60;96.70;;;;;;5061298;28;20227;-75
2021/06/12 07:29:42;;;;;;;7.55;5.90;;;22.80;96.70;;;;;;5064889;28;20346;-75
2021/06/12 07:32:11;;;;;;;6.30;5.13;;;22.80;96.70;;;;;;5062519;28;20056;-75
2021/06/12 07:34:39;;;;;;;7.97;5.32;;;22.90;96.70;;;;;;5081612;28;20467;-75
2021/06/12 07:37:08;;;;;;;6.80;5.47;;;23.00;96.70;;;;;;5079984;28;20044;-75
2021/06/12 07:39:36;;;;;;;7.85;5.07;;;23.00;96.70;;;;;;5080325;28;20525;-75
2021/06/12 07:42:07;;;;;;;7.88;5.68;;;23.20;96.70;;;;;;5080635;28;20066;-75
2021/06/12 07:44:35;;;;;;;8.45;5.78;;;23.20;96.70;;;;;;5080711;28;20516;-75
2021/06/12 07:47:04;;;;;;;5.50;4.78;;;23.10;96.70;;;;;;5065232;28;20062;-75
2021/06/12 07:49:32;;;;;;;7.57;5.45;;;23.10;96.70;;;;;;5080819;28;20043;-75
2021/06/12 07:52:01;;;;;;;7.40;6.07;;;23.10;96.70;;;;;;5080229;28;20504;-75
2021/06/12 07:54:29;;;;;;;9.60;5.65;;;23.20;96.70;;;;;;5081157;28;20043;-75
2021/06/12 07:56:58;;;;;;;6.70;5.53;;;23.30;96.70;;;;;;5076516;28;20040;-75
2021/06/12 07:59:28;;;;;;;5.28;4.78;;;23.40;96.70;;;;;;5079761;28;20049;-75
2021/06/12 08:01:56;;;;;;;6.45;5.85;;;23.50;96.70;;;;;;5098632;27;20079;-75
2021/06/12 08:04:25;;;;;;;8.55;4.95;;;23.60;96.70;;;;;;5090907;28;20085;-75
2021/06/12 08:06:53;;;;;;;5.72;5.05;;;23.70;96.70;;;;;;5096098;27;20084;-75
2021/06/12 08:09:23;;;;;;;8.95;5.10;;;23.70;96.70;;;;;;5100064;27;20393;-75
2021/06/12 08:11:52;;;;;;;8.25;5.28;;;23.70;96.70;;;;;;5085826;27;20074;-75
2021/06/12 08:14:20;;;;;;;7.00;5.20;;;23.80;96.70;;;;;;5100339;27;20035;-74
2021/06/12 08:16:50;;;;;;;8.13;5.65;;;23.90;96.70;;;;;;5099377;27;20358;-75
2021/06/12 08:19:19;;;;;;;5.40;4.63;;;23.90;96.70;;;;;;5118033;27;20481;-75
2021/06/12 08:21:47;;;;;;;5.45;4.57;;;24.10;96.70;;;;;;5096337;28;20093;-75
2021/06/12 08:24:16;;;;;;;7.43;5.07;;;24.10;96.70;;;;;;5107823;27;20563;-75
2021/06/12 08:26:45;;;;;;;5.22;4.50;;;24.20;96.70;;;;;;5100994;27;20063;-75
2021/06/12 08:29:13;;;;;;;6.25;4.65;;;24.30;96.70;;;;;;5099915;28;20400;-75
2021/06/12 08:31:42;;;;;;;6.97;4.82;;;24.40;96.70;;;;;;5100178;27;20043;-75
2021/06/12 08:34:12;;;;;;;6.75;5.05;;;24.40;96.70;;;;;;5101447;28;20496;-75
2021/06/12 08:36:40;;;;;;;5.70;4.32;;;24.40;96.70;;;;;;5083618;28;20052;-75
2021/06/12 08:39:09;;;;;;;5.50;4.18;;;24.60;96.70;;;;;;5098866;27;20074;-75
2021/06/12 08:41:37;;;;;;;5.55;4.60;;;24.80;95.20;;;;;;5097670;27;20065;-75
2021/06/12 08:44:09;;;;;;;5.85;4.60;;;24.90;95.50;;;;;;5096314;27;20633;-75
2021/06/12 08:46:39;;;;;;;5.15;4.65;;;24.80;94.80;;;;;;5099776;27;20040;-75
2021/06/12 08:49:07;;;;;;;6.75;4.22;;;25.00;95.30;;;;;;5083941;28;20043;-75
2021/06/12 08:51:37;;;;;;;5.63;3.63;;;25.00;93.00;;;;;;5098321;28;20050;-75
2021/06/12 08:54:07;;;;;;;3.97;3.58;;;25.10;93.70;;;;;;5097507;27;20040;-75
2021/06/12 08:56:35;;;;;;;5.30;3.95;;;25.30;93.30;;;;;;5084114;28;20170;-75
2021/06/12 08:59:04;;;;;;;4.10;3.67;;;25.40;92.60;;;;;;5100701;28;20046;-75
2021/06/12 09:01:32;;;;;;;4.47;4.00;;;25.40;92.90;;;;;;5097840;27;20425;-75
2021/06/12 09:04:01;;;;;;;5.47;4.13;;;25.50;91.20;;;;;;5080697;28;20418;-75
2021/06/12 09:06:29;;;;;;;4.43;3.83;;;25.60;91.10;;;;;;5115226;27;20059;-75
2021/06/12 09:09:05;;;;;;;5.13;4.10;;;25.70;91.50;;;;;;5103111;27;20071;-75
2021/06/12 09:11:34;;;;;;;6.28;4.43;;;25.80;90.90;;;;;;5100800;28;20035;-75
2021/06/12 09:14:03;;;;;;;4.18;3.58;;;25.90;91.20;;;;;;5097759;27;20039;-74
2021/06/12 09:16:34;;;;;;;5.43;3.78;;;26.00;89.70;;;;;;5098301;27;20058;-75
2021/06/12 09:19:15;;;;;;;3.80;3.17;;;26.00;88.70;;;;;;5099166;28;20074;-75
2021/06/12 09:21:44;;;;;;;5.88;3.42;;;26.10;88.20;;;;;;5100551;28;20508;-76
2021/06/12 09:24:27;;;;;;;5.07;3.53;;;26.00;89.30;;;;;;5097969;28;20366;-75
2021/06/12 09:26:58;;;;;;;3.40;3.05;;;25.90;88.70;;;;;;5101414;28;20382;-75
2021/06/12 09:29:34;;;;;;;4.40;3.60;;;26.00;88.70;;;;;;5098393;28;20036;-75
2021/06/12 09:32:10;;;;;;;5.03;3.60;;;26.30;88.60;;;;;;5100312;28;20067;-75
2021/06/12 09:34:39;;;;;;;;;;;26.50;88.10;;;;;;5114950;28;20388;-75
2021/06/12 09:37:12;;;;;;;5.00;3.30;;;26.60;86.40;;;;;;5101837;28;20211;-75
2021/06/12 09:39:57;;;;;;;4.40;3.17;;;26.70;86.10;;;;;;5095535;28;20058;-75
2021/06/12 09:42:44;;;;;;;3.92;3.20;;;26.80;85.20;;;;;;5081776;28;20100;-75
2021/06/12 09:45:15;;;;;;;3.17;2.88;;;26.90;85.80;;;;;;5100274;28;20050;-75
2021/06/12 09:47:44;;;;;;;3.80;3.40;;;26.80;85.70;;;;;;5099697;28;20044;-75
2021/06/12 09:50:14;;;;;;;4.53;3.08;;;26.70;85.70;;;;;;5098374;28;20044;-75
2021/06/12 09:52:45;;;;;;;3.53;2.95;;;26.70;86.10;;;;;;5094966;28;20063;-75
2021/06/12 09:55:27;;;;;;;3.63;2.90;;;26.60;85.30;;;;;;5099383;28;20062;-75
2021/06/12 09:57:58;;;;;;;3.53;2.70;;;26.80;84.20;;;;;;5095978;28;20131;-75
2021/06/12 10:00:32;;;;;;;3.13;2.88;;;27.00;84.50;;;;;;5083107;28;20047;-75
2021/06/12 10:03:02;;;;;;;2.95;2.20;;;27.00;84.40;;;;;;5119058;27;20052;-76
2021/06/12 10:05:31;;;;;;;4.95;2.65;;;27.00;82.20;;;;;;5096388;28;20044;-75
2021/06/12 10:08:01;;;;;;;3.00;2.30;;;27.20;82.40;;;;;;5088933;28;20056;-75
2021/06/12 10:10:31;;;;;;;2.55;2.35;;;27.30;80.20;;;;;;5108192;28;20495;-75
2021/06/12 10:13:04;;;;;;;5.18;3.00;;;27.50;79.40;;;;;;5098383;28;20075;-75
2021/06/12 10:15:33;;;;;;;2.95;2.70;;;27.60;81.70;;;;;;5098344;28;20047;-75
2021/06/12 10:18:03;;;;;;;3.13;2.83;;;27.80;81.50;;;;;;5101746;27;20079;-75
2021/06/12 10:20:32;;;;;;;3.30;2.95;;;28.00;80.90;;;;;;5101764;27;20047;-75
2021/06/12 10:23:02;;;;;;;4.30;3.00;;;28.00;82.40;;;;;;5109083;27;20473;-75
2021/06/12 10:25:32;;;;;;;3.38;2.70;;;28.10;81.20;;;;;;5099775;28;20078;-74
2021/06/12 10:28:02;;;;;;;4.15;3.40;;;28.30;81.40;;;;;;5103526;27;20039;-75
2021/06/12 10:30:31;;;;;;;3.33;3.00;;;28.20;80.90;;;;;;5098345;28;20140;-75
2021/06/12 10:33:00;;;;;;;3.53;2.90;;;28.00;81.10;;;;;;5097274;27;20119;-75
2021/06/12 10:35:29;;;;;;;3.83;3.17;;;28.10;82.20;;;;;;5099824;27;20040;-75
2021/06/12 10:37:59;;;;;;;5.97;3.38;;;28.40;81.50;;;;;;5106122;27;20509;-75
2021/06/12 10:40:41;;;;;;;3.58;3.20;;;28.80;79.70;;;;;;5104229;27;20051;-75
2021/06/12 10:43:13;;;;;;;4.07;3.65;;;29.00;79.70;;;;;;5103264;28;20074;-75
2021/06/12 10:45:43;;;;;;;5.15;3.25;;;29.00;78.80;;;;;;5102999;27;20054;-75
2021/06/12 10:48:39;;;;;;;3.30;3.00;;;29.00;78.50;;;;;;5100858;27;20043;-75
2021/06/12 10:51:09;;;;;;;3.72;3.35;;;29.10;79.00;;;;;;5087590;28;20040;-75
2021/06/12 10:53:38;;;;;;;4.13;3.20;;;29.20;78.20;;;;;;5098733;27;20129;-75
2021/06/12 10:56:09;;;;;;;4.03;3.28;;;29.20;78.30;;;;;;5101552;27;20044;-75
2021/06/12 10:58:49;;;;;;;5.20;3.47;;;29.30;78.00;;;;;;5103841;27;20039;-75
2021/06/12 11:01:20;;;;;;;3.75;2.95;;;29.00;77.80;;;;;;5098829;27;20058;-75
2021/06/12 11:03:58;;;;;;;3.95;3.45;;;29.00;77.80;;;;;;5123694;27;20132;-75
2021/06/12 11:06:39;;;;;;;3.80;3.00;;;29.20;77.20;;;;;;5100950;27;20135;-75
2021/06/12 11:09:38;;;;;;;3.15;2.70;;;29.30;75.60;;;;;;5086287;28;20138;-75
2021/06/12 11:12:34;;;;;;;3.97;2.47;;;29.40;75.00;;;;;;5103177;27;20134;-75
2021/06/12 11:15:09;;;;;;;3.83;2.78;;;29.60;75.00;;;;;;5085962;28;20552;-75
2021/06/12 11:17:38;;;;;;;3.92;2.83;;;29.70;73.80;;;;;;5100720;27;20063;-75
2021/06/12 11:20:28;;;;;;;3.25;2.60;;;29.90;75.10;;;;;;5098903;28;20038;-75
2021/06/12 11:23:03;;;;;;;4.47;3.08;;;30.10;73.10;;;;;;5083144;27;20088;-76
2021/06/12 11:25:44;;;;;;;2.53;2.33;;;30.00;73.20;;;;;;5101557;28;20071;-75
2021/06/12 11:28:21;;;;;;;2.70;2.50;;;30.00;73.70;;;;;;5101515;27;20050;-75
2021/06/12 11:30:51;;;;;;;2.65;2.30;;;30.00;72.50;;;;;;5102339;28;20071;-75
2021/06/12 11:33:20;;;;;;;3.20;2.53;;;30.00;72.60;;;;;;5119302;27;20051;-75
2021/06/12 11:35:50;;;;;;;2.40;2.20;;;30.10;72.80;;;;;;5103633;27;20044;-75
2021/06/12 11:38:27;;;;;;;2.72;2.08;;;30.20;71.20;;;;;;5083883;28;20039;-75
2021/06/12 11:40:57;;;;;;;2.53;2.10;;;30.20;71.80;;;;;;5100146;27;20138;-75
2021/06/12 11:43:32;;;;;;;2.22;1.90;;;30.20;70.00;;;;;;5098595;27;20031;-76
2021/06/12 11:46:01;;;;;;;2.30;2.10;;;30.30;70.20;;;;;;5097210;28;20040;-75
2021/06/12 11:48:30;;;;;;;2.30;1.70;;;30.50;69.30;;;;;;5100066;27;20035;-74
2021/06/12 11:51:12;;;;;;;1.90;1.58;;;30.70;68.10;;;;;;5098950;27;20066;-74
2021/06/12 11:53:41;;;;;;;2.25;1.58;;;31.00;67.40;;;;;;5097944;28;20548;-74
2021/06/12 11:56:10;;;;;;;2.85;1.60;;;31.10;67.50;;;;;;5106533;27;20496;-74
2021/06/12 11:58:58;;;;;;;2.15;1.95;;;31.10;68.60;;;;;;5100189;28;20098;-74
2021/06/12 12:01:41;;;;;;;2.17;1.65;;;31.10;67.30;;;;;;5092699;27;20047;-75
2021/06/12 12:04:13;;;;;;;1.65;1.55;;;31.30;67.80;;;;;;5100121;28;20044;-75
2021/06/12 12:06:48;;;;;;;1.95;1.77;;;31.30;67.20;;;;;;5084717;28;20079;-74
2021/06/12 12:09:28;;;;;;;1.92;1.80;;;31.40;68.30;;;;;;5099174;28;20040;-74
2021/06/12 12:11:58;;;;;;;2.15;1.80;;;31.60;68.50;;;;;;5099493;27;20131;-74
2021/06/12 12:14:30;;;;;;;2.58;1.83;;;31.60;67.40;;;;;;5102448;27;20415;-75
2021/06/12 12:17:00;;;;;;;3.30;1.83;;;31.40;67.20;;;;;;5104522;27;20309;-75
2021/06/12 12:19:28;;;;;;;2.72;1.70;;;31.70;67.40;;;;;;5098475;28;20067;-74
2021/06/12 12:21:58;;;;;;;2.00;1.80;;;31.60;67.90;;;;;;5102208;27;20043;-74
2021/06/12 12:24:28;;;;;;;1.77;1.48;;;31.40;67.90;;;;;;5100774;27;20120;-75
2021/06/12 12:27:03;;;;;;;1.30;1.20;;;31.50;67.00;;;;;;5100987;28;20088;-76
2021/06/12 12:29:34;;;;;;;1.27;1.17;;;31.50;66.70;;;;;;5095130;27;20047;-77
2021/06/12 12:32:03;;;;;;;1.50;1.40;;;31.50;66.70;;;;;;5098099;28;20147;-76
2021/06/12 12:34:36;;;;;;;1.45;1.35;;;31.40;66.20;;;;;;5098293;27;20172;-76
2021/06/12 12:37:05;;;;;;;2.03;1.60;;;31.40;65.40;;;;;;5097024;28;20039;-75
2021/06/12 12:39:38;;;;;;;1.77;1.67;;;31.60;66.30;;;;;;5103419;27;20047;-75
2021/06/12 12:42:09;;;;;;;2.67;1.40;;;31.80;66.00;;;;;;5101168;27;20430;-75
2021/06/12 12:44:43;;;;;;;1.67;1.50;;;31.80;65.50;;;;;;5101680;27;20055;-75
2021/06/12 12:47:11;;;;;;;1.70;1.58;;;31.90;65.70;;;;;;5100121;28;20035;-75
2021/06/12 12:49:41;;;;;;;1.42;1.33;;;31.70;64.30;;;;;;5111563;27;20050;-76
2021/06/12 12:52:19;;;;;;;1.88;1.02;;;31.60;63.80;;;;;;5101612;27;20516;-76
2021/06/12 12:55:01;;;;;;;1.92;1.20;;;31.60;66.10;;;;;;5095105;28;20409;-76
2021/06/12 12:57:41;;;;;;;1.20;1.00;;;31.70;64.10;;;;;;5097403;28;20066;-75
2021/06/12 13:00:20;;;;;;;1.40;1.30;;;31.80;65.20;;;;;;5097984;27;20490;-75
2021/06/12 13:02:50;;;;;;;3.58;1.48;;;31.80;65.60;;;;;;5096333;27;20559;-75
2021/06/12 13:05:19;;;;;;;1.83;1.58;;;32.10;63.90;;;;;;5099151;27;20390;-75
2021/06/12 13:08:00;;;;;;;2.45;1.88;;;32.30;65.50;;;;;;5105089;27;20040;-75
2021/06/12 13:10:31;;;;;;;1.70;1.60;;;32.60;64.70;;;;;;5083108;28;20065;-75